sensor_id;sensor_type;location;lat;lon;timestamp;P1;durP1;ratioP1;P2;durP2;ratioP2
19291;SDS011;9779;51.756;7.450;2022-12-18T00:01:50;30.43;;;17.93;;
19291;SDS011;9779;51.756;7.450;2022-12-18T00:04:22;28.57;;;18.67;;
19291;SDS011;9779;51.756;7.450;2022-12-18T00:06:49;27.97;;;17.13;;
19291;SDS011;9779;51.756;7.450;2022-12-18T00:09:15;28.67;;;17.83;;
19291;SDS011;9779;51.756;7.450;2022-12-18T00:11:41;27.77;;;18.50;;
19291;SDS011;9779;51.756;7.450;2022-12-18T00:14:06;33.53;;;18.57;;
19291;SDS011;9779;51.756;7.450;2022-12-18T00:16:35;31.30;;;18.40;;
19291;SDS011;9779;51.756;7.450;2022-12-18T00:19:02;28.43;;;17.53;;
19291;SDS011;9779;51.756;7.450;2022-12-18T00:21:28;41.13;;;19.80;;
19291;SDS011;9779;51.756;7.450;2022-12-18T00:23:55;31.63;;;17.47;;
19291;SDS011;9779;51.756;7.450;2022-12-18T00:26:25;33.40;;;18.77;;
19291;SDS011;9779;51.756;7.450;2022-12-18T00:28:52;31.23;;;17.73;;
19291;SDS011;9779;51.756;7.450;2022-12-18T00:31:19;32.83;;;19.50;;
19291;SDS011;9779;51.756;7.450;2022-12-18T00:33:47;28.40;;;17.63;;
19291;SDS011;9779;51.756;7.450;2022-12-18T00:36:17;35.90;;;18.63;;
19291;SDS011;9779;51.756;7.450;2022-12-18T00:38:48;33.27;;;18.13;;
19291;SDS011;9779;51.756;7.450;2022-12-18T00:41:14;32.53;;;17.03;;
19291;SDS011;9779;51.756;7.450;2022-12-18T00:43:59;33.63;;;16.90;;
19291;SDS011;9779;51.756;7.450;2022-12-18T00:46:25;27.10;;;17.17;;
19291;SDS011;9779;51.756;7.450;2022-12-18T00:48:51;27.83;;;17.27;;
19291;SDS011;9779;51.756;7.450;2022-12-18T00:51:16;28.27;;;16.37;;
19291;SDS011;9779;51.756;7.450;2022-12-18T00:53:42;26.70;;;17.70;;
19291;SDS011;9779;51.756;7.450;2022-12-18T00:56:08;29.70;;;17.13;;
19291;SDS011;9779;51.756;7.450;2022-12-18T00:58:33;24.53;;;16.47;;
19291;SDS011;9779;51.756;7.450;2022-12-18T01:01:03;26.57;;;16.57;;
19291;SDS011;9779;51.756;7.450;2022-12-18T01:03:29;30.70;;;17.50;;
19291;SDS011;9779;51.756;7.450;2022-12-18T01:05:55;28.53;;;16.90;;
19291;SDS011;9779;51.756;7.450;2022-12-18T01:08:21;28.93;;;17.53;;
19291;SDS011;9779;51.756;7.450;2022-12-18T01:10:46;32.67;;;17.17;;
19291;SDS011;9779;51.756;7.450;2022-12-18T01:13:12;24.83;;;16.67;;
19291;SDS011;9779;51.756;7.450;2022-12-18T01:15:38;27.57;;;16.10;;
19291;SDS011;9779;51.756;7.450;2022-12-18T01:18:03;25.03;;;17.03;;
19291;SDS011;9779;51.756;7.450;2022-12-18T01:20:32;28.37;;;16.53;;
19291;SDS011;9779;51.756;7.450;2022-12-18T01:22:57;28.87;;;17.47;;
19291;SDS011;9779;51.756;7.450;2022-12-18T01:25:23;37.30;;;17.83;;
19291;SDS011;9779;51.756;7.450;2022-12-18T01:27:49;25.70;;;16.27;;
19291;SDS011;9779;51.756;7.450;2022-12-18T01:30:14;31.57;;;17.43;;
19291;SDS011;9779;51.756;7.450;2022-12-18T01:32:40;31.13;;;16.43;;
19291;SDS011;9779;51.756;7.450;2022-12-18T01:35:06;24.10;;;16.53;;
19291;SDS011;9779;51.756;7.450;2022-12-18T01:37:32;27.50;;;17.50;;
19291;SDS011;9779;51.756;7.450;2022-12-18T01:39:58;27.00;;;16.30;;
19291;SDS011;9779;51.756;7.450;2022-12-18T01:42:23;25.13;;;16.53;;
19291;SDS011;9779;51.756;7.450;2022-12-18T01:50:22;39.30;;;18.27;;
19291;SDS011;9779;51.756;7.450;2022-12-18T01:52:56;35.37;;;19.73;;
19291;SDS011;9779;51.756;7.450;2022-12-18T01:55:26;27.73;;;18.27;;
19291;SDS011;9779;51.756;7.450;2022-12-18T01:57:56;30.80;;;18.23;;
19291;SDS011;9779;51.756;7.450;2022-12-18T02:00:24;28.57;;;18.07;;
19291;SDS011;9779;51.756;7.450;2022-12-18T02:02:51;33.73;;;19.13;;
19291;SDS011;9779;51.756;7.450;2022-12-18T02:05:19;28.07;;;17.80;;
19291;SDS011;9779;51.756;7.450;2022-12-18T02:10:54;33.90;;;18.83;;
19291;SDS011;9779;51.756;7.450;2022-12-18T02:16:30;28.40;;;18.23;;
19291;SDS011;9779;51.756;7.450;2022-12-18T02:19:06;31.07;;;18.37;;
19291;SDS011;9779;51.756;7.450;2022-12-18T02:22:18;27.83;;;15.93;;
19291;SDS011;9779;51.756;7.450;2022-12-18T02:27:59;25.27;;;15.93;;
19291;SDS011;9779;51.756;7.450;2022-12-18T02:30:27;23.70;;;15.33;;
19291;SDS011;9779;51.756;7.450;2022-12-18T02:32:55;31.50;;;17.43;;
19291;SDS011;9779;51.756;7.450;2022-12-18T02:35:24;35.27;;;17.67;;
19291;SDS011;9779;51.756;7.450;2022-12-18T02:37:52;33.03;;;18.80;;
19291;SDS011;9779;51.756;7.450;2022-12-18T02:40:19;38.00;;;20.40;;
19291;SDS011;9779;51.756;7.450;2022-12-18T02:42:46;33.63;;;18.10;;
19291;SDS011;9779;51.756;7.450;2022-12-18T02:45:12;38.03;;;20.00;;
19291;SDS011;9779;51.756;7.450;2022-12-18T02:47:39;26.33;;;16.00;;
19291;SDS011;9779;51.756;7.450;2022-12-18T02:52:41;32.27;;;18.40;;
19291;SDS011;9779;51.756;7.450;2022-12-18T03:00:58;31.33;;;15.90;;
19291;SDS011;9779;51.756;7.450;2022-12-18T03:04:02;28.53;;;17.17;;
19291;SDS011;9779;51.756;7.450;2022-12-18T03:06:33;27.73;;;16.30;;
19291;SDS011;9779;51.756;7.450;2022-12-18T03:09:06;40.23;;;19.70;;
19291;SDS011;9779;51.756;7.450;2022-12-18T03:11:34;34.40;;;19.50;;
19291;SDS011;9779;51.756;7.450;2022-12-18T03:14:23;31.67;;;19.07;;
19291;SDS011;9779;51.756;7.450;2022-12-18T03:16:53;30.30;;;18.77;;
19291;SDS011;9779;51.756;7.450;2022-12-18T03:19:24;34.70;;;20.67;;
19291;SDS011;9779;51.756;7.450;2022-12-18T03:21:57;32.10;;;18.83;;
19291;SDS011;9779;51.756;7.450;2022-12-18T03:24:28;34.47;;;18.47;;
19291;SDS011;9779;51.756;7.450;2022-12-18T03:26:58;30.67;;;18.33;;
19291;SDS011;9779;51.756;7.450;2022-12-18T03:29:34;29.27;;;17.03;;
19291;SDS011;9779;51.756;7.450;2022-12-18T03:32:10;27.67;;;16.80;;
19291;SDS011;9779;51.756;7.450;2022-12-18T03:34:40;25.53;;;18.00;;
19291;SDS011;9779;51.756;7.450;2022-12-18T03:37:08;28.37;;;18.43;;
19291;SDS011;9779;51.756;7.450;2022-12-18T03:39:34;33.53;;;17.00;;
19291;SDS011;9779;51.756;7.450;2022-12-18T03:42:06;26.53;;;16.07;;
19291;SDS011;9779;51.756;7.450;2022-12-18T03:44:55;22.63;;;15.77;;
19291;SDS011;9779;51.756;7.450;2022-12-18T03:47:31;24.23;;;16.30;;
19291;SDS011;9779;51.756;7.450;2022-12-18T03:50:20;24.50;;;14.40;;
19291;SDS011;9779;51.756;7.450;2022-12-18T03:52:56;21.93;;;15.33;;
19291;SDS011;9779;51.756;7.450;2022-12-18T03:55:32;27.07;;;15.70;;
19291;SDS011;9779;51.756;7.450;2022-12-18T03:58:01;24.60;;;16.47;;
19291;SDS011;9779;51.756;7.450;2022-12-18T04:00:28;19.80;;;15.17;;
19291;SDS011;9779;51.756;7.450;2022-12-18T04:02:55;27.47;;;15.90;;
19291;SDS011;9779;51.756;7.450;2022-12-18T04:05:24;31.27;;;15.87;;
19291;SDS011;9779;51.756;7.450;2022-12-18T04:07:53;25.00;;;15.50;;
19291;SDS011;9779;51.756;7.450;2022-12-18T04:10:21;26.67;;;16.00;;
19291;SDS011;9779;51.756;7.450;2022-12-18T04:12:46;28.77;;;15.93;;
19291;SDS011;9779;51.756;7.450;2022-12-18T04:15:12;23.23;;;16.10;;
19291;SDS011;9779;51.756;7.450;2022-12-18T04:17:38;24.23;;;15.93;;
19291;SDS011;9779;51.756;7.450;2022-12-18T04:20:11;22.97;;;15.57;;
19291;SDS011;9779;51.756;7.450;2022-12-18T04:22:37;22.23;;;15.00;;
19291;SDS011;9779;51.756;7.450;2022-12-18T04:25:02;22.77;;;14.77;;
19291;SDS011;9779;51.756;7.450;2022-12-18T04:27:28;25.47;;;16.30;;
19291;SDS011;9779;51.756;7.450;2022-12-18T04:29:54;22.67;;;14.03;;
19291;SDS011;9779;51.756;7.450;2022-12-18T04:32:19;25.70;;;14.57;;
19291;SDS011;9779;51.756;7.450;2022-12-18T04:34:45;22.70;;;14.70;;
19291;SDS011;9779;51.756;7.450;2022-12-18T04:37:11;22.30;;;15.80;;
19291;SDS011;9779;51.756;7.450;2022-12-18T04:39:36;22.57;;;15.47;;
19291;SDS011;9779;51.756;7.450;2022-12-18T04:42:02;24.00;;;15.17;;
19291;SDS011;9779;51.756;7.450;2022-12-18T04:44:27;30.73;;;15.43;;
19291;SDS011;9779;51.756;7.450;2022-12-18T04:46:53;23.63;;;15.80;;
19291;SDS011;9779;51.756;7.450;2022-12-18T04:49:18;24.53;;;14.63;;
19291;SDS011;9779;51.756;7.450;2022-12-18T04:51:44;24.60;;;15.40;;
19291;SDS011;9779;51.756;7.450;2022-12-18T04:54:10;23.00;;;16.03;;
19291;SDS011;9779;51.756;7.450;2022-12-18T04:56:35;21.60;;;15.70;;
19291;SDS011;9779;51.756;7.450;2022-12-18T04:59:01;20.10;;;14.77;;
19291;SDS011;9779;51.756;7.450;2022-12-18T05:01:26;21.73;;;15.27;;
19291;SDS011;9779;51.756;7.450;2022-12-18T05:03:52;31.23;;;18.13;;
19291;SDS011;9779;51.756;7.450;2022-12-18T05:06:17;22.53;;;14.47;;
19291;SDS011;9779;51.756;7.450;2022-12-18T05:08:43;23.57;;;14.53;;
19291;SDS011;9779;51.756;7.450;2022-12-18T05:11:10;25.80;;;16.03;;
19291;SDS011;9779;51.756;7.450;2022-12-18T05:13:40;24.03;;;15.70;;
19291;SDS011;9779;51.756;7.450;2022-12-18T05:16:06;21.27;;;14.90;;
19291;SDS011;9779;51.756;7.450;2022-12-18T05:18:32;20.40;;;14.70;;
19291;SDS011;9779;51.756;7.450;2022-12-18T05:20:58;21.23;;;14.63;;
19291;SDS011;9779;51.756;7.450;2022-12-18T05:23:24;24.63;;;14.77;;
19291;SDS011;9779;51.756;7.450;2022-12-18T05:25:54;27.93;;;14.97;;
19291;SDS011;9779;51.756;7.450;2022-12-18T05:28:21;20.93;;;14.20;;
19291;SDS011;9779;51.756;7.450;2022-12-18T05:30:48;20.63;;;14.53;;
19291;SDS011;9779;51.756;7.450;2022-12-18T05:33:15;33.70;;;18.87;;
19291;SDS011;9779;51.756;7.450;2022-12-18T05:35:41;27.67;;;16.80;;
19291;SDS011;9779;51.756;7.450;2022-12-18T05:38:07;26.20;;;16.17;;
19291;SDS011;9779;51.756;7.450;2022-12-18T05:40:33;23.27;;;14.13;;
19291;SDS011;9779;51.756;7.450;2022-12-18T05:42:59;23.73;;;13.87;;
19291;SDS011;9779;51.756;7.450;2022-12-18T05:45:24;21.57;;;14.30;;
19291;SDS011;9779;51.756;7.450;2022-12-18T05:47:50;20.00;;;14.13;;
19291;SDS011;9779;51.756;7.450;2022-12-18T05:50:16;16.40;;;13.47;;
19291;SDS011;9779;51.756;7.450;2022-12-18T05:52:41;18.20;;;13.87;;
19291;SDS011;9779;51.756;7.450;2022-12-18T05:55:07;23.07;;;15.17;;
19291;SDS011;9779;51.756;7.450;2022-12-18T05:57:32;47.40;;;21.63;;
19291;SDS011;9779;51.756;7.450;2022-12-18T05:59:58;177.10;;;53.27;;
19291;SDS011;9779;51.756;7.450;2022-12-18T06:02:24;113.83;;;37.73;;
19291;SDS011;9779;51.756;7.450;2022-12-18T06:04:49;82.00;;;30.73;;
19291;SDS011;9779;51.756;7.450;2022-12-18T06:07:15;76.53;;;29.53;;
19291;SDS011;9779;51.756;7.450;2022-12-18T06:09:40;59.47;;;27.17;;
19291;SDS011;9779;51.756;7.450;2022-12-18T06:12:06;49.63;;;24.80;;
19291;SDS011;9779;51.756;7.450;2022-12-18T06:14:31;52.40;;;24.70;;
19291;SDS011;9779;51.756;7.450;2022-12-18T06:16:57;33.20;;;18.70;;
19291;SDS011;9779;51.756;7.450;2022-12-18T06:19:22;36.47;;;19.23;;
19291;SDS011;9779;51.756;7.450;2022-12-18T06:21:48;27.90;;;17.13;;
19291;SDS011;9779;51.756;7.450;2022-12-18T06:24:14;30.17;;;17.17;;
19291;SDS011;9779;51.756;7.450;2022-12-18T06:26:40;27.37;;;15.93;;
19291;SDS011;9779;51.756;7.450;2022-12-18T06:29:06;22.17;;;14.83;;
19291;SDS011;9779;51.756;7.450;2022-12-18T06:31:31;21.30;;;14.30;;
19291;SDS011;9779;51.756;7.450;2022-12-18T06:33:57;20.87;;;14.40;;
19291;SDS011;9779;51.756;7.450;2022-12-18T06:36:23;21.93;;;14.53;;
19291;SDS011;9779;51.756;7.450;2022-12-18T06:38:48;21.17;;;15.30;;
19291;SDS011;9779;51.756;7.450;2022-12-18T06:41:15;19.20;;;13.63;;
19291;SDS011;9779;51.756;7.450;2022-12-18T06:43:42;22.80;;;13.67;;
19291;SDS011;9779;51.756;7.450;2022-12-18T06:46:08;25.83;;;14.57;;
19291;SDS011;9779;51.756;7.450;2022-12-18T06:48:34;23.73;;;15.73;;
19291;SDS011;9779;51.756;7.450;2022-12-18T06:51:01;22.03;;;14.63;;
19291;SDS011;9779;51.756;7.450;2022-12-18T06:53:27;21.60;;;14.60;;
19291;SDS011;9779;51.756;7.450;2022-12-18T06:55:53;25.27;;;15.03;;
19291;SDS011;9779;51.756;7.450;2022-12-18T06:58:24;22.40;;;14.83;;
19291;SDS011;9779;51.756;7.450;2022-12-18T07:00:50;18.07;;;14.13;;
19291;SDS011;9779;51.756;7.450;2022-12-18T07:03:15;23.10;;;15.00;;
19291;SDS011;9779;51.756;7.450;2022-12-18T07:05:41;20.27;;;15.00;;
19291;SDS011;9779;51.756;7.450;2022-12-18T07:08:06;23.43;;;16.17;;
19291;SDS011;9779;51.756;7.450;2022-12-18T07:10:33;24.37;;;15.43;;
19291;SDS011;9779;51.756;7.450;2022-12-18T07:12:58;26.37;;;16.07;;
19291;SDS011;9779;51.756;7.450;2022-12-18T07:15:24;22.83;;;15.90;;
19291;SDS011;9779;51.756;7.450;2022-12-18T07:17:49;27.47;;;18.03;;
19291;SDS011;9779;51.756;7.450;2022-12-18T07:20:15;23.77;;;16.83;;
19291;SDS011;9779;51.756;7.450;2022-12-18T07:22:40;28.13;;;18.63;;
19291;SDS011;9779;51.756;7.450;2022-12-18T07:25:06;31.83;;;19.47;;
19291;SDS011;9779;51.756;7.450;2022-12-18T07:27:32;34.33;;;20.30;;
19291;SDS011;9779;51.756;7.450;2022-12-18T07:29:57;35.93;;;22.43;;
19291;SDS011;9779;51.756;7.450;2022-12-18T07:32:23;37.07;;;22.20;;
19291;SDS011;9779;51.756;7.450;2022-12-18T07:34:49;33.90;;;21.23;;
19291;SDS011;9779;51.756;7.450;2022-12-18T07:37:14;36.90;;;19.10;;
19291;SDS011;9779;51.756;7.450;2022-12-18T07:39:40;42.33;;;23.60;;
19291;SDS011;9779;51.756;7.450;2022-12-18T07:42:05;39.43;;;23.50;;
19291;SDS011;9779;51.756;7.450;2022-12-18T07:44:52;45.47;;;23.97;;
19291;SDS011;9779;51.756;7.450;2022-12-18T07:47:18;46.97;;;23.67;;
19291;SDS011;9779;51.756;7.450;2022-12-18T07:49:43;42.70;;;23.93;;
19291;SDS011;9779;51.756;7.450;2022-12-18T07:52:09;39.57;;;23.77;;
19291;SDS011;9779;51.756;7.450;2022-12-18T07:54:34;42.87;;;23.07;;
19291;SDS011;9779;51.756;7.450;2022-12-18T07:57:00;39.17;;;23.40;;
19291;SDS011;9779;51.756;7.450;2022-12-18T07:59:25;36.17;;;20.93;;
19291;SDS011;9779;51.756;7.450;2022-12-18T08:01:51;42.03;;;20.50;;
19291;SDS011;9779;51.756;7.450;2022-12-18T08:04:17;30.00;;;19.30;;
19291;SDS011;9779;51.756;7.450;2022-12-18T08:06:42;31.80;;;19.97;;
19291;SDS011;9779;51.756;7.450;2022-12-18T08:09:09;35.83;;;20.73;;
19291;SDS011;9779;51.756;7.450;2022-12-18T08:11:35;32.13;;;19.93;;
19291;SDS011;9779;51.756;7.450;2022-12-18T08:14:01;30.57;;;19.40;;
19291;SDS011;9779;51.756;7.450;2022-12-18T08:16:26;36.27;;;21.17;;
19291;SDS011;9779;51.756;7.450;2022-12-18T08:18:52;29.37;;;18.97;;
19291;SDS011;9779;51.756;7.450;2022-12-18T08:21:20;36.63;;;21.07;;
19291;SDS011;9779;51.756;7.450;2022-12-18T08:23:51;36.83;;;21.60;;
19291;SDS011;9779;51.756;7.450;2022-12-18T08:26:18;34.87;;;21.83;;
19291;SDS011;9779;51.756;7.450;2022-12-18T08:28:44;48.73;;;25.40;;
19291;SDS011;9779;51.756;7.450;2022-12-18T08:31:11;45.03;;;25.07;;
19291;SDS011;9779;51.756;7.450;2022-12-18T08:33:37;52.73;;;25.40;;
19291;SDS011;9779;51.756;7.450;2022-12-18T08:36:04;44.37;;;23.20;;
19291;SDS011;9779;51.756;7.450;2022-12-18T08:38:30;45.53;;;22.20;;
19291;SDS011;9779;51.756;7.450;2022-12-18T08:41:00;47.03;;;23.23;;
19291;SDS011;9779;51.756;7.450;2022-12-18T08:43:25;45.63;;;22.30;;
19291;SDS011;9779;51.756;7.450;2022-12-18T08:46:10;34.40;;;20.07;;
19291;SDS011;9779;51.756;7.450;2022-12-18T08:48:36;32.63;;;17.77;;
19291;SDS011;9779;51.756;7.450;2022-12-18T08:51:01;39.57;;;18.40;;
19291;SDS011;9779;51.756;7.450;2022-12-18T08:53:27;24.20;;;14.93;;
19291;SDS011;9779;51.756;7.450;2022-12-18T08:55:52;25.70;;;16.67;;
19291;SDS011;9779;51.756;7.450;2022-12-18T08:58:18;29.73;;;17.07;;
19291;SDS011;9779;51.756;7.450;2022-12-18T09:00:44;35.07;;;17.77;;
19291;SDS011;9779;51.756;7.450;2022-12-18T09:03:11;42.30;;;23.70;;
19291;SDS011;9779;51.756;7.450;2022-12-18T09:08:10;53.50;;;25.90;;
19291;SDS011;9779;51.756;7.450;2022-12-18T09:10:41;47.53;;;25.80;;
19291;SDS011;9779;51.756;7.450;2022-12-18T09:13:08;43.17;;;24.23;;
19291;SDS011;9779;51.756;7.450;2022-12-18T09:15:39;49.00;;;23.30;;
19291;SDS011;9779;51.756;7.450;2022-12-18T09:18:10;46.50;;;22.90;;
19291;SDS011;9779;51.756;7.450;2022-12-18T09:20:36;47.27;;;23.17;;
19291;SDS011;9779;51.756;7.450;2022-12-18T09:23:02;42.47;;;20.33;;
19291;SDS011;9779;51.756;7.450;2022-12-18T09:25:28;36.37;;;21.10;;
19291;SDS011;9779;51.756;7.450;2022-12-18T09:28:31;33.40;;;19.73;;
19291;SDS011;9779;51.756;7.450;2022-12-18T09:30:51;33.57;;;18.60;;
19291;SDS011;9779;51.756;7.450;2022-12-18T09:33:17;30.63;;;18.43;;
19291;SDS011;9779;51.756;7.450;2022-12-18T09:35:43;27.60;;;16.43;;
19291;SDS011;9779;51.756;7.450;2022-12-18T09:38:14;28.13;;;16.67;;
19291;SDS011;9779;51.756;7.450;2022-12-18T09:40:42;26.10;;;15.77;;
19291;SDS011;9779;51.756;7.450;2022-12-18T09:43:14;23.40;;;16.70;;
19291;SDS011;9779;51.756;7.450;2022-12-18T09:45:47;19.07;;;15.50;;
19291;SDS011;9779;51.756;7.450;2022-12-18T09:48:23;29.50;;;18.07;;
19291;SDS011;9779;51.756;7.450;2022-12-18T09:50:54;25.67;;;16.03;;
19291;SDS011;9779;51.756;7.450;2022-12-18T09:53:25;18.43;;;14.10;;
19291;SDS011;9779;51.756;7.450;2022-12-18T09:55:55;17.17;;;12.60;;
19291;SDS011;9779;51.756;7.450;2022-12-18T09:58:30;15.97;;;12.90;;
19291;SDS011;9779;51.756;7.450;2022-12-18T10:01:00;17.80;;;11.93;;
19291;SDS011;9779;51.756;7.450;2022-12-18T10:03:26;11.60;;;9.30;;
19291;SDS011;9779;51.756;7.450;2022-12-18T10:05:55;9.60;;;8.33;;
19291;SDS011;9779;51.756;7.450;2022-12-18T10:08:49;11.43;;;10.20;;
19291;SDS011;9779;51.756;7.450;2022-12-18T10:11:38;8.87;;;7.80;;
19291;SDS011;9779;51.756;7.450;2022-12-18T10:14:22;11.07;;;9.90;;
19291;SDS011;9779;51.756;7.450;2022-12-18T10:19:37;8.13;;;7.43;;
19291;SDS011;9779;51.756;7.450;2022-12-18T10:27:56;8.77;;;7.87;;
19291;SDS011;9779;51.756;7.450;2022-12-18T10:30:25;8.87;;;7.43;;
19291;SDS011;9779;51.756;7.450;2022-12-18T10:32:51;9.27;;;8.37;;
19291;SDS011;9779;51.756;7.450;2022-12-18T10:35:19;7.30;;;6.77;;
19291;SDS011;9779;51.756;7.450;2022-12-18T10:40:28;7.23;;;6.57;;
19291;SDS011;9779;51.756;7.450;2022-12-18T10:43:05;7.13;;;6.43;;
19291;SDS011;9779;51.756;7.450;2022-12-18T10:45:36;13.33;;;11.23;;
19291;SDS011;9779;51.756;7.450;2022-12-18T10:48:01;26.73;;;14.93;;
19291;SDS011;9779;51.756;7.450;2022-12-18T10:50:30;10.50;;;9.03;;
19291;SDS011;9779;51.756;7.450;2022-12-18T10:52:59;21.83;;;14.00;;
19291;SDS011;9779;51.756;7.450;2022-12-18T10:55:31;18.33;;;11.77;;
19291;SDS011;9779;51.756;7.450;2022-12-18T10:58:16;22.17;;;14.13;;
19291;SDS011;9779;51.756;7.450;2022-12-18T11:03:33;8.30;;;7.60;;
19291;SDS011;9779;51.756;7.450;2022-12-18T11:06:13;6.67;;;6.17;;
19291;SDS011;9779;51.756;7.450;2022-12-18T11:08:46;7.10;;;6.43;;
19291;SDS011;9779;51.756;7.450;2022-12-18T11:11:48;6.60;;;6.10;;
19291;SDS011;9779;51.756;7.450;2022-12-18T11:14:22;5.43;;;4.93;;
19291;SDS011;9779;51.756;7.450;2022-12-18T11:16:51;5.30;;;4.90;;
19291;SDS011;9779;51.756;7.450;2022-12-18T11:21:56;5.37;;;4.97;;
19291;SDS011;9779;51.756;7.450;2022-12-18T11:27:01;6.00;;;5.50;;
19291;SDS011;9779;51.756;7.450;2022-12-18T11:29:39;5.90;;;5.37;;
19291;SDS011;9779;51.756;7.450;2022-12-18T11:34:39;5.60;;;5.23;;
19291;SDS011;9779;51.756;7.450;2022-12-18T11:37:11;7.10;;;6.07;;
19291;SDS011;9779;51.756;7.450;2022-12-18T11:39:40;6.83;;;6.10;;
19291;SDS011;9779;51.756;7.450;2022-12-18T11:47:56;8.83;;;8.13;;
19291;SDS011;9779;51.756;7.450;2022-12-18T11:53:11;8.27;;;7.57;;
19291;SDS011;9779;51.756;7.450;2022-12-18T12:06:37;6.37;;;5.87;;
19291;SDS011;9779;51.756;7.450;2022-12-18T12:12:15;10.00;;;9.10;;
19291;SDS011;9779;51.756;7.450;2022-12-18T12:17:49;9.63;;;8.73;;
19291;SDS011;9779;51.756;7.450;2022-12-18T12:23:45;21.67;;;13.90;;
19291;SDS011;9779;51.756;7.450;2022-12-18T12:35:01;19.10;;;12.53;;
19291;SDS011;9779;51.756;7.450;2022-12-18T12:40:21;10.53;;;9.47;;
19291;SDS011;9779;51.756;7.450;2022-12-18T12:42:53;9.23;;;8.43;;
19291;SDS011;9779;51.756;7.450;2022-12-18T12:48:13;10.27;;;9.30;;
19291;SDS011;9779;51.756;7.450;2022-12-18T12:50:43;7.87;;;7.17;;
19291;SDS011;9779;51.756;7.450;2022-12-18T12:53:14;8.30;;;7.60;;
19291;SDS011;9779;51.756;7.450;2022-12-18T12:55:54;8.67;;;7.87;;
19291;SDS011;9779;51.756;7.450;2022-12-18T13:01:28;8.97;;;8.07;;
19291;SDS011;9779;51.756;7.450;2022-12-18T13:04:17;8.83;;;5.90;;
19291;SDS011;9779;51.756;7.450;2022-12-18T13:07:02;8.03;;;7.33;;
19291;SDS011;9779;51.756;7.450;2022-12-18T13:09:36;8.50;;;7.70;;
19291;SDS011;9779;51.756;7.450;2022-12-18T13:18:21;7.23;;;6.63;;
19291;SDS011;9779;51.756;7.450;2022-12-18T13:20:50;7.27;;;6.43;;
19291;SDS011;9779;51.756;7.450;2022-12-18T13:36:47;10.27;;;8.53;;
19291;SDS011;9779;51.756;7.450;2022-12-18T13:41:44;10.10;;;9.10;;
19291;SDS011;9779;51.756;7.450;2022-12-18T13:49:24;9.50;;;8.60;;
19291;SDS011;9779;51.756;7.450;2022-12-18T13:52:20;8.57;;;7.77;;
19291;SDS011;9779;51.756;7.450;2022-12-18T13:54:52;9.97;;;9.17;;
19291;SDS011;9779;51.756;7.450;2022-12-18T13:57:31;10.10;;;9.30;;
19291;SDS011;9779;51.756;7.450;2022-12-18T14:00:14;9.90;;;8.93;;
19291;SDS011;9779;51.756;7.450;2022-12-18T14:02:48;9.00;;;7.93;;
19291;SDS011;9779;51.756;7.450;2022-12-18T14:05:22;13.90;;;8.43;;
19291;SDS011;9779;51.756;7.450;2022-12-18T14:07:48;8.53;;;7.73;;
19291;SDS011;9779;51.756;7.450;2022-12-18T14:10:13;9.17;;;8.37;;
19291;SDS011;9779;51.756;7.450;2022-12-18T14:12:44;12.10;;;8.30;;
19291;SDS011;9779;51.756;7.450;2022-12-18T14:15:27;11.73;;;10.10;;
19291;SDS011;9779;51.756;7.450;2022-12-18T14:18:20;13.00;;;10.83;;
19291;SDS011;9779;51.756;7.450;2022-12-18T14:20:58;9.20;;;8.43;;
19291;SDS011;9779;51.756;7.450;2022-12-18T14:26:48;9.47;;;8.47;;
19291;SDS011;9779;51.756;7.450;2022-12-18T14:28:52;10.07;;;8.60;;
19291;SDS011;9779;51.756;7.450;2022-12-18T14:31:19;8.83;;;7.80;;
19291;SDS011;9779;51.756;7.450;2022-12-18T14:33:46;9.10;;;8.20;;
19291;SDS011;9779;51.756;7.450;2022-12-18T14:36:14;13.23;;;8.53;;
19291;SDS011;9779;51.756;7.450;2022-12-18T14:38:42;7.77;;;7.13;;
19291;SDS011;9779;51.756;7.450;2022-12-18T14:41:11;8.57;;;7.77;;
19291;SDS011;9779;51.756;7.450;2022-12-18T14:43:42;8.83;;;8.00;;
19291;SDS011;9779;51.756;7.450;2022-12-18T14:46:29;9.53;;;8.00;;
19291;SDS011;9779;51.756;7.450;2022-12-18T14:51:57;9.63;;;8.63;;
19291;SDS011;9779;51.756;7.450;2022-12-18T14:54:29;10.10;;;9.17;;
19291;SDS011;9779;51.756;7.450;2022-12-18T14:59:30;11.33;;;8.17;;
19291;SDS011;9779;51.756;7.450;2022-12-18T15:02:01;10.57;;;7.97;;
19291;SDS011;9779;51.756;7.450;2022-12-18T15:07:14;10.27;;;7.93;;
19291;SDS011;9779;51.756;7.450;2022-12-18T15:09:43;8.30;;;7.50;;
19291;SDS011;9779;51.756;7.450;2022-12-18T15:12:37;12.17;;;7.87;;
19291;SDS011;9779;51.756;7.450;2022-12-18T15:15:43;11.50;;;7.67;;
19291;SDS011;9779;51.756;7.450;2022-12-18T15:20:40;11.87;;;9.03;;
19291;SDS011;9779;51.756;7.450;2022-12-18T15:23:19;11.90;;;8.73;;
19291;SDS011;9779;51.756;7.450;2022-12-18T15:25:45;10.13;;;8.33;;
19291;SDS011;9779;51.756;7.450;2022-12-18T15:28:16;12.60;;;8.27;;
19291;SDS011;9779;51.756;7.450;2022-12-18T15:31:00;15.00;;;10.10;;
19291;SDS011;9779;51.756;7.450;2022-12-18T15:33:29;12.97;;;8.73;;
19291;SDS011;9779;51.756;7.450;2022-12-18T15:36:00;13.93;;;10.10;;
19291;SDS011;9779;51.756;7.450;2022-12-18T15:38:33;13.20;;;10.57;;
19291;SDS011;9779;51.756;7.450;2022-12-18T15:40:59;15.33;;;11.33;;
19291;SDS011;9779;51.756;7.450;2022-12-18T15:43:25;15.13;;;11.20;;
19291;SDS011;9779;51.756;7.450;2022-12-18T15:46:21;17.63;;;12.27;;
19291;SDS011;9779;51.756;7.450;2022-12-18T15:48:48;16.20;;;11.43;;
19291;SDS011;9779;51.756;7.450;2022-12-18T15:51:16;21.50;;;11.77;;
19291;SDS011;9779;51.756;7.450;2022-12-18T15:53:45;17.13;;;11.33;;
19291;SDS011;9779;51.756;7.450;2022-12-18T15:56:12;14.03;;;11.60;;
19291;SDS011;9779;51.756;7.450;2022-12-18T15:58:57;14.63;;;12.00;;
19291;SDS011;9779;51.756;7.450;2022-12-18T16:01:24;15.77;;;11.87;;
19291;SDS011;9779;51.756;7.450;2022-12-18T16:03:51;16.17;;;11.10;;
19291;SDS011;9779;51.756;7.450;2022-12-18T16:06:18;14.67;;;11.40;;
19291;SDS011;9779;51.756;7.450;2022-12-18T16:08:44;14.70;;;11.60;;
19291;SDS011;9779;51.756;7.450;2022-12-18T16:11:23;21.73;;;12.67;;
19291;SDS011;9779;51.756;7.450;2022-12-18T16:14:10;12.87;;;10.73;;
19291;SDS011;9779;51.756;7.450;2022-12-18T16:16:44;14.63;;;11.10;;
19291;SDS011;9779;51.756;7.450;2022-12-18T16:19:14;19.33;;;11.47;;
19291;SDS011;9779;51.756;7.450;2022-12-18T16:21:41;16.23;;;11.13;;
19291;SDS011;9779;51.756;7.450;2022-12-18T16:24:26;12.03;;;10.73;;
19291;SDS011;9779;51.756;7.450;2022-12-18T16:26:53;14.33;;;11.73;;
19291;SDS011;9779;51.756;7.450;2022-12-18T16:29:20;16.07;;;12.17;;
19291;SDS011;9779;51.756;7.450;2022-12-18T16:31:52;14.70;;;12.20;;
19291;SDS011;9779;51.756;7.450;2022-12-18T16:34:23;22.77;;;12.60;;
19291;SDS011;9779;51.756;7.450;2022-12-18T16:36:57;13.00;;;11.60;;
19291;SDS011;9779;51.756;7.450;2022-12-18T16:39:30;20.07;;;13.40;;
19291;SDS011;9779;51.756;7.450;2022-12-18T16:41:58;20.77;;;13.90;;
19291;SDS011;9779;51.756;7.450;2022-12-18T16:44:23;20.60;;;14.50;;
19291;SDS011;9779;51.756;7.450;2022-12-18T16:46:49;23.00;;;15.57;;
19291;SDS011;9779;51.756;7.450;2022-12-18T16:49:15;23.37;;;14.27;;
19291;SDS011;9779;51.756;7.450;2022-12-18T16:51:42;16.47;;;12.07;;
19291;SDS011;9779;51.756;7.450;2022-12-18T16:54:08;20.50;;;14.27;;
19291;SDS011;9779;51.756;7.450;2022-12-18T16:56:34;17.93;;;14.13;;
19291;SDS011;9779;51.756;7.450;2022-12-18T16:59:00;24.97;;;15.70;;
19291;SDS011;9779;51.756;7.450;2022-12-18T17:01:28;27.13;;;16.13;;
19291;SDS011;9779;51.756;7.450;2022-12-18T17:03:55;33.17;;;16.40;;
19291;SDS011;9779;51.756;7.450;2022-12-18T17:06:25;26.93;;;16.40;;
19291;SDS011;9779;51.756;7.450;2022-12-18T17:08:59;26.63;;;16.20;;